Time;durP1;ratioP1;P1;durP2;ratioP2;P2;SDS_P1;SDS_P2;PMS_P1;PMS_P2;Temp;Humidity;BMP_temperature;BMP_pressure;BME280_temperature;BME280_humidity;BME280_pressure;Samples;Min_cycle;Max_cycle;Signal;HPM_P1;HPM_P2
2024/01/21 00:03:46;;;;;;;2.13;1.23;;;;;;;;;;10408247;28;20029;-78
2024/01/21 00:08:47;;;;;;;3.30;2.90;;;;;;;;;;10424760;28;20021;-76
2024/01/21 00:13:47;;;;;;;11.27;10.20;;;;;;;;;;10419354;28;20021;-84
2024/01/21 00:18:47;;;;;;;10.70;9.60;;;;;;;;;;10406392;28;20556;-80
2024/01/21 00:23:47;;;;;;;9.45;8.23;;;;;;;;;;10407756;28;20108;-77
2024/01/21 00:28:48;;;;;;;8.27;6.90;;;;;;;;;;10396831;28;20062;-81
2024/01/21 00:33:48;;;;;;;9.43;7.82;;;;;;;;;;10401770;28;20048;-76
2024/01/21 00:38:48;;;;;;;8.75;7.43;;;;;;;;;;10387504;28;20029;-81
2024/01/21 00:43:49;;;;;;;11.75;10.63;;;;;;;;;;10369679;28;20056;-78
2024/01/21 00:48:49;;;;;;;0.00;0.00;;;;;;;;;;10384190;28;20064;-78
2024/01/21 00:53:50;;;;;;;1.98;1.77;;;;;;;;;;10400799;28;20136;-79
2024/01/21 00:58:50;;;;;;;0.10;0.10;;;;;;;;;;10383741;28;20766;-78
2024/01/21 01:03:50;;;;;;;0.00;0.00;;;;;;;;;;10401201;28;20037;-78
2024/01/21 01:08:51;;;;;;;4.93;4.50;;;;;;;;;;10383831;28;20022;-79
2024/01/21 01:13:51;;;;;;;2.83;2.63;;;;;;;;;;10383056;28;20021;-78
2024/01/21 01:18:52;;;;;;;9.73;8.82;;;;;;;;;;10394905;28;20507;-76
2024/01/21 01:23:52;;;;;;;11.98;10.82;;;;;;;;;;10409413;28;20026;-80
2024/01/21 01:28:52;;;;;;;13.05;11.88;;;;;;;;;;10410142;28;20050;-77
2024/01/21 01:33:52;;;;;;;10.13;9.18;;;;;;;;;;10385816;28;20269;-80
2024/01/21 01:38:53;;;;;;;10.43;9.40;;;;;;;;;;10407909;28;20139;-84
2024/01/21 01:43:53;;;;;;;14.75;13.45;;;;;;;;;;10391244;28;20018;-78
2024/01/21 01:48:54;;;;;;;13.05;11.85;;;;;;;;;;10408116;28;20034;-86
2024/01/21 01:53:54;;;;;;;18.90;17.48;;;;;;;;;;10390352;28;20091;-76
2024/01/21 01:59:06;;;;;;;11.57;10.65;;;;;;;;;;10410988;28;20464;-81
2024/01/21 02:04:08;;;;;;;13.30;12.07;;;;;;;;;;10407646;28;20128;-83
2024/01/21 02:09:09;;;;;;;16.65;15.30;;;;;;;;;;10411519;22;20079;-74
2024/01/21 02:14:12;;;;;;;13.43;12.20;;;;;;;;;;10486674;28;20008;-73
2024/01/21 02:19:26;;;;;;;14.73;13.50;;;;;;;;;;10491284;28;20028;-73
2024/01/21 02:24:33;;;;;;;14.20;12.85;;;;;;;;;;10505117;28;20106;-74
2024/01/21 02:29:33;;;;;;;6.60;6.10;;;;;;;;;;10504181;28;20036;-73
2024/01/21 02:34:33;;;;;;;0.00;0.00;;;;;;;;;;10487164;28;20020;-74
2024/01/21 02:39:34;;;;;;;17.13;15.70;;;;;;;;;;10479765;28;20326;-74
2024/01/21 02:44:34;;;;;;;15.35;14.13;;;;;;;;;;10497085;28;20032;-73
2024/01/21 02:49:34;;;;;;;25.17;23.40;;;;;;;;;;10490277;28;20028;-74
2024/01/21 02:54:34;;;;;;;17.83;16.55;;;;;;;;;;10503261;28;20483;-74
2024/01/21 02:59:35;;;;;;;20.50;19.13;;;;;;;;;;10485129;28;20334;-73
2024/01/21 03:04:35;;;;;;;20.07;18.50;;;;;;;;;;10502671;28;20310;-74
2024/01/21 03:09:35;;;;;;;17.00;15.65;;;;;;;;;;10502512;28;20360;-73
2024/01/21 03:14:35;;;;;;;23.25;21.63;;;;;;;;;;10484759;28;20016;-73
2024/01/21 03:19:35;;;;;;;21.77;20.13;;;;;;;;;;10483988;28;20012;-74
2024/01/21 03:24:36;;;;;;;20.58;19.13;;;;;;;;;;10501967;28;20221;-73
2024/01/21 03:29:36;;;;;;;17.13;15.77;;;;;;;;;;10501739;28;20024;-74
2024/01/21 03:34:41;;;;;;;13.13;12.02;;;;;;;;;;10502280;28;20024;-74
2024/01/21 03:39:41;;;;;;;21.75;20.13;;;;;;;;;;10498930;28;20171;-73
2024/01/21 03:44:41;;;;;;;17.10;15.85;;;;;;;;;;10472200;28;20030;-74
2024/01/21 03:49:42;;;;;;;15.57;14.23;;;;;;;;;;10500892;28;20028;-73
2024/01/21 03:54:42;;;;;;;20.40;18.87;;;;;;;;;;10487397;28;20016;-73
2024/01/21 03:59:42;;;;;;;17.40;16.02;;;;;;;;;;10500434;28;20378;-73
2024/01/21 04:04:44;;;;;;;18.27;16.98;;;;;;;;;;10482569;28;20025;-74
2024/01/21 04:09:44;;;;;;;22.45;20.92;;;;;;;;;;10493121;28;20060;-73
2024/01/21 04:14:44;;;;;;;27.48;25.65;;;;;;;;;;10499845;28;20024;-74
2024/01/21 04:19:46;;;;;;;29.83;27.98;;;;;;;;;;10482018;28;20394;-74
2024/01/21 04:24:46;;;;;;;17.40;15.75;;;;;;;;;;10499706;28;20170;-74
2024/01/21 04:29:47;;;;;;;40.63;38.28;;;;;;;;;;10500670;28;20031;-75
2024/01/21 04:34:47;;;;;;;24.90;23.30;;;;;;;;;;10499062;28;20087;-73
2024/01/21 04:39:47;;;;;;;44.65;42.15;;;;;;;;;;10499126;28;20024;-74
2024/01/21 04:44:48;;;;;;;38.28;36.05;;;;;;;;;;10499793;28;20038;-73
2024/01/21 04:49:48;;;;;;;22.10;20.77;;;;;;;;;;10467160;28;20028;-74
2024/01/21 04:54:48;;;;;;;22.67;20.88;;;;;;;;;;10498539;28;20020;-74
2024/01/21 04:59:48;;;;;;;26.60;24.63;;;;;;;;;;10498779;28;20017;-74
2024/01/21 05:04:48;;;;;;;27.40;25.42;;;;;;;;;;10499136;28;20310;-74
2024/01/21 05:09:49;;;;;;;32.53;30.33;;;;;;;;;;10498237;28;20342;-72
2024/01/21 05:14:49;;;;;;;38.05;35.60;;;;;;;;;;10498218;28;20274;-73
2024/01/21 05:19:49;;;;;;;27.40;25.30;;;;;;;;;;10480695;28;20318;-74
2024/01/21 05:24:50;;;;;;;25.92;24.27;;;;;;;;;;10498378;28;20030;-75
2024/01/21 05:29:50;;;;;;;27.92;26.00;;;;;;;;;;10494937;28;20024;-73
2024/01/21 05:34:51;;;;;;;29.98;28.27;;;;;;;;;;10476182;28;20059;-73
2024/01/21 05:39:51;;;;;;;40.03;37.80;;;;;;;;;;10496928;28;20080;-73
2024/01/21 05:44:51;;;;;;;42.17;39.58;;;;;;;;;;10481559;28;20063;-73
2024/01/21 05:49:51;;;;;;;31.20;29.38;;;;;;;;;;10489272;28;20021;-74
2024/01/21 05:54:52;;;;;;;36.22;34.45;;;;;;;;;;10490067;28;20058;-75
2024/01/21 05:59:52;;;;;;;30.38;28.95;;;;;;;;;;10496077;28;20032;-75
2024/01/21 06:04:52;;;;;;;14.38;13.70;;;;;;;;;;10487919;28;20025;-74
2024/01/21 06:09:52;;;;;;;26.70;25.23;;;;;;;;;;10497180;28;20296;-74
2024/01/21 06:14:53;;;;;;;46.70;44.50;;;;;;;;;;10491048;28;20026;-73
2024/01/21 06:19:53;;;;;;;8.15;7.72;;;;;;;;;;10489940;28;20198;-73
2024/01/21 06:24:53;;;;;;;17.88;17.05;;;;;;;;;;10480020;28;20017;-74
2024/01/21 06:29:53;;;;;;;31.02;29.50;;;;;;;;;;10502699;28;20043;-73
2024/01/21 06:34:53;;;;;;;21.13;20.05;;;;;;;;;;10484471;28;20020;-74
2024/01/21 06:39:54;;;;;;;3.20;3.05;;;;;;;;;;10486924;28;20017;-73
2024/01/21 06:44:54;;;;;;;25.75;24.40;;;;;;;;;;10496513;28;20025;-73
2024/01/21 06:49:54;;;;;;;16.15;15.25;;;;;;;;;;10493616;28;20024;-73
2024/01/21 06:54:55;;;;;;;29.77;28.10;;;;;;;;;;10499756;28;20012;-73
2024/01/21 06:59:55;;;;;;;16.23;15.15;;;;;;;;;;10483217;28;20421;-73
2024/01/21 07:04:55;;;;;;;36.38;34.45;;;;;;;;;;10501158;28;20026;-74
2024/01/21 07:09:55;;;;;;;23.48;22.27;;;;;;;;;;10499912;28;20075;-75
2024/01/21 07:14:56;;;;;;;41.50;39.17;;;;;;;;;;10499322;28;20023;-76
2024/01/21 07:19:56;;;;;;;26.23;24.73;;;;;;;;;;10498892;28;20385;-74
2024/01/21 07:24:56;;;;;;;43.05;40.75;;;;;;;;;;10502045;28;20017;-74
2024/01/21 07:29:57;;;;;;;33.25;31.42;;;;;;;;;;10501448;28;20024;-75
2024/01/21 07:34:57;;;;;;;20.73;19.60;;;;;;;;;;10500942;28;20024;-77
2024/01/21 07:39:57;;;;;;;27.25;25.60;;;;;;;;;;10500837;28;20312;-75
2024/01/21 07:44:58;;;;;;;0.00;0.00;;;;;;;;;;10488228;28;20036;-76
2024/01/21 07:49:58;;;;;;;0.00;0.00;;;;;;;;;;10499749;28;20091;-76
2024/01/21 07:54:58;;;;;;;0.00;0.00;;;;;;;;;;10496231;28;20020;-76
2024/01/21 07:59:59;;;;;;;0.00;0.00;;;;;;;;;;10492328;28;20025;-75
2024/01/21 08:04:59;;;;;;;0.00;0.00;;;;;;;;;;10496741;28;20050;-76
2024/01/21 08:09:59;;;;;;;0.00;0.00;;;;;;;;;;10478735;28;20048;-77
2024/01/21 08:15:00;;;;;;;1.20;1.02;;;;;;;;;;10485706;28;20239;-76
2024/01/21 08:20:00;;;;;;;0.00;0.00;;;;;;;;;;10488907;28;20043;-77
2024/01/21 08:25:00;;;;;;;1.90;1.80;;;;;;;;;;10499762;28;20229;-81
2024/01/21 08:30:02;;;;;;;2.95;2.80;;;;;;;;;;10500079;28;20274;-77
2024/01/21 08:35:03;;;;;;;0.55;0.55;;;;;;;;;;10500156;28;20012;-77
2024/01/21 08:40:04;;;;;;;2.85;2.65;;;;;;;;;;10499566;28;20021;-75
2024/01/21 08:45:05;;;;;;;0.95;0.95;;;;;;;;;;10498756;28;20054;-77
2024/01/21 08:50:05;;;;;;;3.28;3.10;;;;;;;;;;10499872;28;20029;-77
2024/01/21 08:55:06;;;;;;;5.25;4.95;;;;;;;;;;10486624;28;20062;-79
2024/01/21 09:00:06;;;;;;;1.13;0.60;;;;;;;;;;10499282;28;20028;-78
2024/01/21 09:05:08;;;;;;;0.80;0.80;;;;;;;;;;10502266;28;20020;-81
2024/01/21 09:10:09;;;;;;;3.60;1.38;;;;;;;;;;10482449;28;20374;-83
2024/01/21 09:15:09;;;;;;;0.53;0.10;;;;;;;;;;10488320;28;20264;-79
2024/01/21 09:20:09;;;;;;;3.78;3.60;;;;;;;;;;10467791;28;20258;-76
2024/01/21 09:25:10;;;;;;;1.10;1.10;;;;;;;;;;10486091;28;20356;-75
2024/01/21 09:30:10;;;;;;;1.15;1.10;;;;;;;;;;10485503;28;20272;-79
2024/01/21 09:35:10;;;;;;;0.20;0.15;;;;;;;;;;10487615;28;20351;-80
2024/01/21 09:40:11;;;;;;;0.00;0.00;;;;;;;;;;10485617;28;20132;-79
2024/01/21 09:45:11;;;;;;;0.38;0.38;;;;;;;;;;10486630;28;20449;-76
2024/01/21 09:50:12;;;;;;;1.85;1.77;;;;;;;;;;10485989;28;20017;-78
2024/01/21 09:55:12;;;;;;;0.00;0.00;;;;;;;;;;10486046;28;20033;-74
2024/01/21 10:00:13;;;;;;;0.77;0.15;;;;;;;;;;10473683;28;20077;-81
2024/01/21 10:05:14;;;;;;;0.05;0.05;;;;;;;;;;10495631;28;20013;-79
2024/01/21 10:10:14;;;;;;;0.03;0.00;;;;;;;;;;10492613;28;20045;-77
2024/01/21 10:15:14;;;;;;;0.00;0.00;;;;;;;;;;10493613;28;20320;-80
2024/01/21 10:20:15;;;;;;;0.00;0.00;;;;;;;;;;10493303;28;20571;-79
2024/01/21 10:25:15;;;;;;;13.18;0.13;;;;;;;;;;10490880;28;20016;-77
2024/01/21 10:30:16;;;;;;;0.25;0.00;;;;;;;;;;10490681;28;20054;-79
2024/01/21 10:35:16;;;;;;;537.05;59.78;;;;;;;;;;10491196;28;20221;-73
2024/01/21 10:40:17;;;;;;;606.15;66.70;;;;;;;;;;10492779;28;20258;-76
2024/01/21 10:45:17;;;;;;;614.70;69.90;;;;;;;;;;10492145;28;20133;-74
2024/01/21 10:50:19;;;;;;;664.47;85.87;;;;;;;;;;10491069;28;20227;-75
2024/01/21 10:55:19;;;;;;;664.15;87.75;;;;;;;;;;10491689;28;20266;-75
2024/01/21 11:00:20;;;;;;;654.65;83.50;;;;;;;;;;10491235;28;20023;-74
2024/01/21 11:05:22;;;;;;;496.08;88.32;;;;;;;;;;10491264;28;20013;-75
2024/01/21 11:10:22;;;;;;;547.92;182.88;;;;;;;;;;10489508;28;20094;-74
2024/01/21 11:15:29;;;;;;;217.98;28.58;;;;;;;;;;10487818;28;20092;-74
2024/01/21 11:20:31;;;;;;;421.33;58.93;;;;;;;;;;10487655;28;21167;-74
2024/01/21 11:25:32;;;;;;;536.20;64.68;;;;;;;;;;10488600;28;20576;-74
2024/01/21 11:30:35;;;;;;;373.65;48.80;;;;;;;;;;10492837;28;20055;-84
2024/01/21 11:35:37;;;;;;;327.60;47.53;;;;;;;;;;10484527;28;20333;-83
2024/01/21 11:40:37;;;;;;;659.27;536.97;;;;;;;;;;10491116;28;20480;-82
2024/01/21 11:45:38;;;;;;;918.70;822.40;;;;;;;;;;10490670;28;20017;-80
2024/01/21 11:50:39;;;;;;;769.28;551.38;;;;;;;;;;10490785;28;20019;-82
2024/01/21 11:55:40;;;;;;;663.90;320.60;;;;;;;;;;10494954;28;20036;-82
2024/01/21 12:00:40;;;;;;;735.97;474.85;;;;;;;;;;10504923;28;20285;-89
2024/01/21 12:05:41;;;;;;;729.80;393.90;;;;;;;;;;10485367;28;20111;-80
2024/01/21 12:10:42;;;;;;;500.60;69.18;;;;;;;;;;10487020;28;20291;-78
2024/01/21 12:15:48;;;;;;;752.73;372.47;;;;;;;;;;10467281;28;20018;-78
2024/01/21 12:20:48;;;;;;;703.03;157.82;;;;;;;;;;10490761;28;20452;-78
2024/01/21 12:25:48;;;;;;;665.38;84.75;;;;;;;;;;10485030;28;20024;-78
2024/01/21 12:30:49;;;;;;;673.30;124.00;;;;;;;;;;10488083;28;20014;-79
2024/01/21 12:35:49;;;;;;;679.67;108.60;;;;;;;;;;10487143;28;20282;-75
2024/01/21 12:40:49;;;;;;;584.55;96.43;;;;;;;;;;10487019;28;20214;-78
2024/01/21 12:45:49;;;;;;;669.42;300.65;;;;;;;;;;10468546;28;20024;-80
2024/01/21 12:50:50;;;;;;;488.65;113.22;;;;;;;;;;10485746;28;20024;-78
2024/01/21 12:55:50;;;;;;;604.70;488.08;;;;;;;;;;10486698;28;20012;-75
2024/01/21 13:00:50;;;;;;;686.65;501.40;;;;;;;;;;10482282;28;20051;-79
2024/01/21 13:05:50;;;;;;;557.70;425.75;;;;;;;;;;10482758;28;20344;-82
2024/01/21 13:10:51;;;;;;;674.50;489.45;;;;;;;;;;10462983;28;20070;-78
2024/01/21 13:15:51;;;;;;;768.30;493.52;;;;;;;;;;10480851;28;20182;-75
2024/01/21 13:20:51;;;;;;;743.50;461.65;;;;;;;;;;10482539;28;20124;-75
2024/01/21 13:25:51;;;;;;;640.63;434.95;;;;;;;;;;10482255;28;20036;-75
2024/01/21 13:30:53;;;;;;;587.40;455.10;;;;;;;;;;10483331;28;20032;-76
2024/01/21 13:35:54;;;;;;;607.10;428.25;;;;;;;;;;10489839;28;20086;-76
2024/01/21 13:40:54;;;;;;;722.53;470.83;;;;;;;;;;10470794;28;20061;-76
2024/01/21 13:45:55;;;;;;;712.00;467.40;;;;;;;;;;10490092;28;20302;-76
2024/01/21 13:50:55;;;;;;;641.70;434.23;;;;;;;;;;10489808;28;20279;-76
2024/01/21 13:55:55;;;;;;;593.88;407.40;;;;;;;;;;10472332;28;20324;-75
2024/01/21 14:00:55;;;;;;;593.65;407.55;;;;;;;;;;10493172;28;20062;-82
2024/01/21 14:05:55;;;;;;;611.47;432.85;;;;;;;;;;10476599;28;20024;-81
2024/01/21 14:10:56;;;;;;;634.92;394.90;;;;;;;;;;10494294;28;20101;-79
2024/01/21 14:15:56;;;;;;;700.97;450.08;;;;;;;;;;10493580;28;20044;-82
2024/01/21 14:20:56;;;;;;;678.80;439.13;;;;;;;;;;10492470;28;20028;-79
2024/01/21 14:25:59;;;;;;;683.27;450.60;;;;;;;;;;10489213;28;20024;-85
2024/01/21 14:30:59;;;;;;;737.00;443.15;;;;;;;;;;10468719;28;20237;-85
2024/01/21 14:35:59;;;;;;;740.03;365.52;;;;;;;;;;10490870;28;20079;-84
2024/01/21 14:40:59;;;;;;;782.13;467.52;;;;;;;;;;10491289;28;20028;-81
2024/01/21 14:45:59;;;;;;;781.42;483.60;;;;;;;;;;10473258;28;20016;-78
2024/01/21 14:51:00;;;;;;;776.80;458.73;;;;;;;;;;10493484;28;20055;-83
2024/01/21 14:56:01;;;;;;;767.92;430.92;;;;;;;;;;10495877;28;20203;-81
2024/01/21 15:01:01;;;;;;;717.35;295.73;;;;;;;;;;10491900;28;20024;-79
2024/01/21 15:06:01;;;;;;;772.53;465.88;;;;;;;;;;10483777;28;20183;-78
2024/01/21 15:11:02;;;;;;;775.47;460.17;;;;;;;;;;10469889;28;20068;-78
2024/01/21 15:16:03;;;;;;;769.60;446.48;;;;;;;;;;10480817;28;20031;-76
2024/01/21 15:21:03;;;;;;;767.00;432.38;;;;;;;;;;10466238;28;20300;-84
2024/01/21 15:26:04;;;;;;;753.58;425.38;;;;;;;;;;10484555;28;20240;-79
2024/01/21 15:31:04;;;;;;;767.55;445.92;;;;;;;;;;10473504;28;20266;-80
2024/01/21 15:36:05;;;;;;;749.03;389.92;;;;;;;;;;10489723;28;20044;-80
2024/01/21 15:41:08;;;;;;;724.17;427.17;;;;;;;;;;10486595;28;20098;-79
2024/01/21 15:46:08;;;;;;;719.45;399.88;;;;;;;;;;10485688;28;20565;-77
2024/01/21 15:51:09;;;;;;;740.80;383.33;;;;;;;;;;10485421;28;20036;-79
2024/01/21 15:56:09;;;;;;;720.05;430.20;;;;;;;;;;10472625;28;20255;-77
2024/01/21 16:01:09;;;;;;;703.17;407.98;;;;;;;;;;10490514;28;20060;-74
2024/01/21 16:06:09;;;;;;;610.70;347.88;;;;;;;;;;10477078;28;20050;-74
2024/01/21 16:11:10;;;;;;;626.35;376.90;;;;;;;;;;10464301;28;20049;-74
2024/01/21 16:16:10;;;;;;;620.08;369.52;;;;;;;;;;10482807;28;20520;-75
2024/01/21 16:21:11;;;;;;;614.63;364.23;;;;;;;;;;10481366;28;20095;-74
2024/01/21 16:26:11;;;;;;;681.70;401.20;;;;;;;;;;10463436;28;20029;-75
2024/01/21 16:31:12;;;;;;;739.63;412.50;;;;;;;;;;10463431;28;20087;-74
2024/01/21 16:36:12;;;;;;;705.90;292.92;;;;;;;;;;10480412;28;20191;-74
2024/01/21 16:41:13;;;;;;;719.55;312.88;;;;;;;;;;10461935;28;20047;-74
2024/01/21 16:46:16;;;;;;;726.25;420.90;;;;;;;;;;10481026;28;20095;-75
2024/01/21 16:51:16;;;;;;;754.92;417.38;;;;;;;;;;10479394;28;20064;-74
2024/01/21 16:56:17;;;;;;;452.90;62.95;;;;;;;;;;10480386;28;20195;-73
2024/01/21 17:01:17;;;;;;;729.97;346.05;;;;;;;;;;10480926;28;20013;-74
2024/01/21 17:06:17;;;;;;;748.08;442.52;;;;;;;;;;10479457;28;20062;-74
2024/01/21 17:11:22;;;;;;;737.25;384.20;;;;;;;;;;10483693;28;20223;-76
2024/01/21 17:16:23;;;;;;;757.95;432.15;;;;;;;;;;10457667;28;20024;-76
2024/01/21 17:21:23;;;;;;;748.28;432.33;;;;;;;;;;10460487;28;20047;-75
2024/01/21 17:26:24;;;;;;;783.83;515.25;;;;;;;;;;10479557;28;20009;-74
2024/01/21 17:31:24;;;;;;;710.58;263.20;;;;;;;;;;10479127;28;20325;-76
2024/01/21 17:36:26;;;;;;;644.53;463.83;;;;;;;;;;10480589;28;20032;-75
2024/01/21 17:41:29;;;;;;;653.17;423.98;;;;;;;;;;10478816;28;20346;-74
2024/01/21 17:46:29;;;;;;;678.65;394.08;;;;;;;;;;10479019;28;20055;-76
2024/01/21 17:51:30;;;;;;;687.10;415.27;;;;;;;;;;10479777;28;20027;-76
2024/01/21 17:56:30;;;;;;;677.83;401.23;;;;;;;;;;10459516;28;20344;-74
2024/01/21 18:01:30;;;;;;;698.50;405.70;;;;;;;;;;10477980;28;20012;-74
2024/01/21 18:06:31;;;;;;;712.00;465.38;;;;;;;;;;10477848;28;20325;-74
2024/01/21 18:11:31;;;;;;;687.22;381.58;;;;;;;;;;10463511;28;20239;-74
2024/01/21 18:16:31;;;;;;;656.85;405.63;;;;;;;;;;10481368;28;20023;-74
2024/01/21 18:21:32;;;;;;;680.43;372.50;;;;;;;;;;10486130;28;20016;-74
2024/01/21 18:26:32;;;;;;;698.53;377.60;;;;;;;;;;10480327;28;20025;-75
2024/01/21 18:31:33;;;;;;;674.22;385.52;;;;;;;;;;10481101;28;20024;-72
2024/01/21 18:36:34;;;;;;;704.92;408.40;;;;;;;;;;10460177;28;20081;-75
2024/01/21 18:41:34;;;;;;;707.80;418.05;;;;;;;;;;10475732;28;20021;-74
2024/01/21 18:46:34;;;;;;;733.50;339.63;;;;;;;;;;10478763;28;20089;-76
2024/01/21 18:51:35;;;;;;;671.13;175.70;;;;;;;;;;10478812;28;20814;-74
2024/01/21 18:56:35;;;;;;;583.28;66.78;;;;;;;;;;10483846;28;20024;-74
2024/01/21 19:01:35;;;;;;;646.97;96.43;;;;;;;;;;10474113;28;20408;-75
2024/01/21 19:06:35;;;;;;;621.70;77.28;;;;;;;;;;10480646;28;20027;-75
2024/01/21 19:11:36;;;;;;;625.25;75.65;;;;;;;;;;10477820;28;20153;-74
2024/01/21 19:16:36;;;;;;;411.90;49.78;;;;;;;;;;10485086;28;20078;-74
2024/01/21 19:21:37;;;;;;;647.63;108.63;;;;;;;;;;10480821;28;20059;-76
2024/01/21 19:26:38;;;;;;;623.53;80.93;;;;;;;;;;10483169;28;20025;-75
2024/01/21 19:31:39;;;;;;;615.08;78.85;;;;;;;;;;10483730;28;20017;-74
2024/01/21 19:36:39;;;;;;;623.72;80.53;;;;;;;;;;10478028;28;20028;-74
2024/01/21 19:41:39;;;;;;;613.85;75.38;;;;;;;;;;10478584;28;20035;-74
2024/01/21 19:46:39;;;;;;;596.67;70.57;;;;;;;;;;10479290;28;20245;-74
2024/01/21 19:51:43;;;;;;;622.35;81.80;;;;;;;;;;10479752;28;20025;-75
2024/01/21 19:56:44;;;;;;;641.15;100.65;;;;;;;;;;10478569;28;20075;-75
2024/01/21 20:01:45;;;;;;;647.05;109.55;;;;;;;;;;10478720;28;20036;-75
2024/01/21 20:06:46;;;;;;;686.42;223.35;;;;;;;;;;10477647;28;20565;-74
2024/01/21 20:11:46;;;;;;;658.22;148.48;;;;;;;;;;10455308;28;20045;-75
2024/01/21 20:16:47;;;;;;;654.20;110.25;;;;;;;;;;10480365;28;20032;-75
2024/01/21 20:21:47;;;;;;;636.67;90.05;;;;;;;;;;10482034;28;20020;-73
2024/01/21 20:26:47;;;;;;;627.45;78.78;;;;;;;;;;10479368;28;20035;-75
2024/01/21 20:31:48;;;;;;;623.43;75.93;;;;;;;;;;10462599;28;20647;-75
2024/01/21 20:36:48;;;;;;;635.45;80.88;;;;;;;;;;10480567;28;20349;-74
2024/01/21 20:41:48;;;;;;;627.40;76.63;;;;;;;;;;10479816;28;20024;-73
2024/01/21 20:46:49;;;;;;;637.15;82.05;;;;;;;;;;10480632;28;20024;-74
2024/01/21 20:51:50;;;;;;;637.58;89.88;;;;;;;;;;10481276;28;20103;-74
2024/01/21 20:56:50;;;;;;;633.40;89.28;;;;;;;;;;10479431;28;20028;-76
2024/01/21 21:01:50;;;;;;;624.38;77.32;;;;;;;;;;10467112;28;20210;-75
2024/01/21 21:06:51;;;;;;;623.90;78.35;;;;;;;;;;10482745;28;20016;-74
2024/01/21 21:11:52;;;;;;;611.53;71.75;;;;;;;;;;10442448;28;20108;-74
2024/01/21 21:16:52;;;;;;;621.10;77.63;;;;;;;;;;10455530;28;20013;-74
2024/01/21 21:21:53;;;;;;;631.47;86.60;;;;;;;;;;10462660;28;20028;-74
2024/01/21 21:26:53;;;;;;;630.10;85.55;;;;;;;;;;10471573;28;20013;-75
2024/01/21 21:31:53;;;;;;;623.97;81.97;;;;;;;;;;10495156;28;20091;-75
2024/01/21 21:36:53;;;;;;;629.33;83.43;;;;;;;;;;10495419;28;20008;-75
2024/01/21 21:41:53;;;;;;;612.47;75.65;;;;;;;;;;10496169;28;20356;-74
2024/01/21 21:46:55;;;;;;;621.92;77.55;;;;;;;;;;10478623;28;20036;-74
2024/01/21 21:51:57;;;;;;;610.08;74.00;;;;;;;;;;10478714;28;20016;-74
2024/01/21 21:56:57;;;;;;;597.15;68.38;;;;;;;;;;10506322;28;20027;-75
2024/01/21 22:01:58;;;;;;;607.15;71.13;;;;;;;;;;10507207;28;20191;-72
2024/01/21 22:06:59;;;;;;;612.28;72.82;;;;;;;;;;10475368;28;20025;-75
2024/01/21 22:12:00;;;;;;;610.53;73.93;;;;;;;;;;10465051;28;20043;-74
2024/01/21 22:17:16;;;;;;;607.05;73.60;;;;;;;;;;10465972;28;20037;-73
2024/01/21 22:22:16;;;;;;;614.80;75.30;;;;;;;;;;10460742;28;20214;-75
2024/01/21 22:27:17;;;;;;;610.20;71.40;;;;;;;;;;10494823;28;20040;-74
2024/01/21 22:32:17;;;;;;;607.90;71.35;;;;;;;;;;10461701;28;20020;-75
2024/01/21 22:37:17;;;;;;;599.03;68.68;;;;;;;;;;10477411;28;20055;-74
2024/01/21 22:42:18;;;;;;;570.20;62.03;;;;;;;;;;10480244;28;20021;-74
2024/01/21 22:47:18;;;;;;;583.55;64.50;;;;;;;;;;10498197;28;20025;-75
2024/01/21 22:52:18;;;;;;;589.92;67.55;;;;;;;;;;10464412;28;20080;-73
2024/01/21 22:57:18;;;;;;;571.77;63.70;;;;;;;;;;10488275;28;20020;-74
2024/01/21 23:02:19;;;;;;;597.88;68.53;;;;;;;;;;10482942;28;20562;-72
2024/01/21 23:07:19;;;;;;;649.70;100.97;;;;;;;;;;10468766;28;20283;-75
2024/01/21 23:12:19;;;;;;;649.35;102.90;;;;;;;;;;10463853;28;20234;-75
2024/01/21 23:17:20;;;;;;;662.67;133.25;;;;;;;;;;10463932;28;20274;-74
2024/01/21 23:22:20;;;;;;;651.67;91.55;;;;;;;;;;10462305;28;20080;-76
2024/01/21 23:27:20;;;;;;;643.38;94.03;;;;;;;;;;10459682;28;20021;-74
2024/01/21 23:32:20;;;;;;;627.47;77.60;;;;;;;;;;10462110;28;20223;-74
2024/01/21 23:37:22;;;;;;;628.42;74.35;;;;;;;;;;10463365;28;20246;-74
2024/01/21 23:42:22;;;;;;;607.42;71.78;;;;;;;;;;10480167;28;20012;-75
2024/01/21 23:47:22;;;;;;;599.72;69.55;;;;;;;;;;10501930;28;20027;-76
2024/01/21 23:52:22;;;;;;;598.00;67.88;;;;;;;;;;10510086;28;20054;-77
2024/01/21 23:57:22;;;;;;;593.60;68.43;;;;;;;;;;10487231;28;20016;-76
